createdAt,value
2023-03-15T00:02:11.298Z,0.70
2023-03-15T00:04:54.852Z,0.80
2023-03-15T00:07:37.460Z,0.80
2023-03-15T00:10:20.097Z,1.20
2023-03-15T00:13:04.073Z,0.77
2023-03-15T00:15:47.008Z,0.65
2023-03-15T00:18:29.748Z,0.80
2023-03-15T00:21:12.390Z,0.60
2023-03-15T00:23:54.994Z,0.88
2023-03-15T00:26:37.600Z,1.00
2023-03-15T00:29:22.114Z,0.85
2023-03-15T00:32:04.908Z,0.85
2023-03-15T00:34:49.333Z,0.80
2023-03-15T00:37:32.504Z,0.55
2023-03-15T00:40:16.118Z,0.80
2023-03-15T00:42:58.894Z,0.60
2023-03-15T00:45:45.135Z,0.88
2023-03-15T00:48:27.783Z,0.75
2023-03-15T00:51:12.010Z,0.75
2023-03-15T00:53:54.702Z,0.70
2023-03-15T00:56:37.462Z,0.60
2023-03-15T00:59:20.132Z,0.70
2023-03-15T01:02:04.396Z,0.90
2023-03-15T01:04:47.086Z,0.80
2023-03-15T01:07:29.704Z,0.70
2023-03-15T01:10:12.964Z,0.60
2023-03-15T01:12:55.681Z,0.80
2023-03-15T01:15:38.323Z,0.80
2023-03-15T01:18:22.293Z,0.73
2023-03-15T01:21:07.067Z,0.60
2023-03-15T01:23:49.740Z,0.77
2023-03-15T01:26:32.403Z,0.88
2023-03-15T01:29:15.038Z,0.80
2023-03-15T01:31:57.763Z,0.70
2023-03-15T01:34:43.449Z,0.50
2023-03-15T01:37:26.478Z,0.57
2023-03-15T01:40:10.064Z,0.75
2023-03-15T01:42:53.990Z,0.80
2023-03-15T01:46:01.083Z,0.70
2023-03-15T01:48:47.257Z,0.70
2023-03-15T01:51:38.157Z,0.80
2023-03-15T01:54:23.580Z,0.70
2023-03-15T01:57:08.906Z,0.70
2023-03-15T01:59:53.533Z,0.70
2023-03-15T02:02:36.185Z,0.80
2023-03-15T02:05:20.701Z,0.77
2023-03-15T02:08:07.151Z,0.70
2023-03-15T02:10:52.641Z,0.73
2023-03-15T02:13:36.904Z,0.70
2023-03-15T02:16:24.654Z,0.80
2023-03-15T02:19:19.241Z,0.73
2023-03-15T02:22:12.184Z,0.80
2023-03-15T02:24:59.806Z,0.65
2023-03-15T02:27:44.670Z,0.60
2023-03-15T02:30:27.404Z,0.60
2023-03-15T02:33:12.101Z,0.50
2023-03-15T02:35:55.378Z,0.50
2023-03-15T02:38:38.199Z,0.70
2023-03-15T02:41:23.661Z,0.80
2023-03-15T02:44:08.909Z,0.82
2023-03-15T02:46:53.407Z,0.70
2023-03-15T02:49:38.695Z,0.90
2023-03-15T02:52:23.493Z,0.80
2023-03-15T02:55:06.664Z,0.80
2023-03-15T02:57:49.606Z,0.70
2023-03-15T03:00:33.975Z,0.80
2023-03-15T03:03:16.550Z,0.80
2023-03-15T03:05:59.196Z,0.82
2023-03-15T03:08:42.022Z,1.00
2023-03-15T03:11:25.410Z,0.90
2023-03-15T03:14:14.141Z,0.77
2023-03-15T03:16:58.869Z,0.90
2023-03-15T03:19:41.560Z,0.82
2023-03-15T03:22:25.329Z,0.98
2023-03-15T03:25:09.760Z,1.02
2023-03-15T03:27:56.943Z,0.90
2023-03-15T03:30:40.701Z,0.90
2023-03-15T03:33:24.806Z,1.02
2023-03-15T03:36:07.926Z,0.80
2023-03-15T03:38:51.455Z,0.88
2023-03-15T03:41:34.423Z,0.93
2023-03-15T03:44:17.657Z,1.17
2023-03-15T03:47:01.557Z,1.05
2023-03-15T03:49:46.326Z,0.80
2023-03-15T03:52:28.941Z,0.80
2023-03-15T03:55:19.665Z,0.88
2023-03-15T03:58:02.351Z,1.00
2023-03-15T04:00:59.098Z,0.82
2023-03-15T04:03:45.803Z,0.95
2023-03-15T04:06:33.066Z,1.00
2023-03-15T04:09:16.533Z,1.00
2023-03-15T04:12:01.599Z,1.08
2023-03-15T04:14:45.329Z,1.20
2023-03-15T04:17:28.913Z,0.95
2023-03-15T04:20:12.961Z,0.98
2023-03-15T04:23:00.658Z,1.00
2023-03-15T04:25:55.238Z,1.00
2023-03-15T04:28:56.933Z,0.95
2023-03-15T04:32:09.453Z,1.13
2023-03-15T04:35:18.286Z,1.15
2023-03-15T04:38:11.430Z,1.20
2023-03-15T04:40:54.750Z,1.10
2023-03-15T04:43:51.086Z,1.00
2023-03-15T04:46:54.888Z,1.00
2023-03-15T04:49:57.877Z,0.80
2023-03-15T04:53:01.580Z,1.00
2023-03-15T04:55:54.285Z,0.90
2023-03-15T04:58:55.323Z,0.82
2023-03-15T05:02:02.828Z,0.80
2023-03-15T05:05:15.885Z,0.80
2023-03-15T05:08:30.580Z,0.95
2023-03-15T05:11:31.041Z,0.75
2023-03-15T05:14:34.698Z,0.90
2023-03-15T05:17:30.318Z,1.10
2023-03-15T05:20:33.191Z,1.20
2023-03-15T05:23:39.144Z,1.60
2023-03-15T05:26:41.774Z,1.55
2023-03-15T05:29:30.572Z,2.00
2023-03-15T05:32:34.593Z,2.17
2023-03-15T05:35:32.993Z,2.30
2023-03-15T05:38:33.891Z,2.42
2023-03-15T05:41:39.163Z,2.92
2023-03-15T05:44:41.855Z,2.97
2023-03-15T05:47:50.672Z,3.10
2023-03-15T05:50:47.469Z,3.08
2023-03-15T05:54:02.436Z,3.28
2023-03-15T05:57:02.588Z,3.38
2023-03-15T05:59:49.375Z,3.38
2023-03-15T06:02:43.400Z,2.78
2023-03-15T06:05:43.353Z,2.95
2023-03-15T06:08:30.925Z,2.72
2023-03-15T06:11:13.641Z,3.08
2023-03-15T06:13:56.689Z,2.60
2023-03-15T06:17:05.431Z,2.60
2023-03-15T06:19:48.265Z,2.78
2023-03-15T06:22:30.996Z,2.30
2023-03-15T06:25:18.216Z,2.60
2023-03-15T06:28:01.164Z,2.35
2023-03-15T06:30:44.119Z,2.20
2023-03-15T06:33:29.119Z,2.25
2023-03-15T06:36:12.442Z,2.38
2023-03-15T06:38:55.988Z,2.40
2023-03-15T06:41:38.639Z,2.45
2023-03-15T06:44:26.411Z,2.22
2023-03-15T06:47:13.278Z,2.22
2023-03-15T06:49:57.248Z,2.05
2023-03-15T06:52:40.216Z,2.00
2023-03-15T06:55:23.211Z,2.33
2023-03-15T06:58:05.821Z,2.47
2023-03-15T07:00:49.538Z,2.00
2023-03-15T07:03:32.178Z,2.08
2023-03-15T07:06:16.216Z,2.10
2023-03-15T07:08:58.841Z,1.70
2023-03-15T07:11:41.452Z,1.92
2023-03-15T07:14:24.139Z,2.05
2023-03-15T07:17:06.794Z,1.77
2023-03-15T07:19:56.233Z,1.42
2023-03-15T07:22:40.860Z,1.05
2023-03-15T07:25:24.060Z,0.70
2023-03-15T07:28:06.782Z,0.70
2023-03-15T07:30:56.313Z,0.85
2023-03-15T07:33:39.313Z,1.20
2023-03-15T07:36:22.252Z,0.90
2023-03-15T07:39:06.223Z,0.93
2023-03-15T07:41:48.843Z,0.90
2023-03-15T07:44:38.592Z,0.88
2023-03-15T07:47:21.294Z,0.88
2023-03-15T07:50:04.401Z,1.00
2023-03-15T07:52:47.135Z,0.82
2023-03-15T07:55:32.193Z,0.98
2023-03-15T07:58:14.856Z,0.70
2023-03-15T08:00:57.848Z,0.77
2023-03-15T08:03:41.490Z,0.95
2023-03-15T08:06:24.347Z,0.90
2023-03-15T08:09:06.987Z,1.20
2023-03-15T08:11:50.998Z,1.25
2023-03-15T08:14:33.704Z,1.17
2023-03-15T08:17:16.563Z,1.45
2023-03-15T08:19:59.262Z,1.25
2023-03-15T08:22:44.477Z,1.52
2023-03-15T08:25:27.197Z,1.77
2023-03-15T08:28:11.301Z,1.65
2023-03-15T08:30:54.021Z,1.63
2023-03-15T08:33:36.695Z,1.60
2023-03-15T08:36:19.344Z,1.30
2023-03-15T08:39:02.053Z,1.75
2023-03-15T08:41:45.642Z,1.40
2023-03-15T08:44:29.616Z,1.20
2023-03-15T08:47:12.539Z,1.40
2023-03-15T08:49:55.172Z,1.35
2023-03-15T08:52:37.811Z,1.38
2023-03-15T08:55:20.691Z,1.02
2023-03-15T08:58:04.821Z,1.52
2023-03-15T09:00:49.520Z,1.25
2023-03-15T09:03:33.278Z,1.00
2023-03-15T09:06:15.908Z,1.02
2023-03-15T09:08:58.570Z,0.70
2023-03-15T09:11:41.183Z,0.60
2023-03-15T09:14:23.864Z,0.77
2023-03-15T09:17:08.008Z,0.90
2023-03-15T09:19:52.436Z,0.50
2023-03-15T09:22:39.531Z,0.73
2023-03-15T09:25:22.858Z,0.80
2023-03-15T09:28:05.743Z,0.63
2023-03-15T09:30:48.538Z,0.80
2023-03-15T09:33:33.230Z,0.50
2023-03-15T09:36:15.952Z,0.50
2023-03-15T09:38:58.747Z,0.60
2023-03-15T09:41:43.409Z,0.60
2023-03-15T09:44:33.327Z,0.52
2023-03-15T09:47:21.829Z,0.63
2023-03-15T09:50:07.240Z,0.50
2023-03-15T09:52:51.760Z,0.68
2023-03-15T09:55:34.417Z,0.65
2023-03-15T09:58:19.233Z,0.50
2023-03-15T10:01:03.607Z,0.90
2023-03-15T10:03:49.319Z,0.55
2023-03-15T10:06:36.540Z,0.70
2023-03-15T10:09:22.752Z,0.70
2023-03-15T10:12:06.230Z,0.65
2023-03-15T10:15:06.664Z,0.70
2023-03-15T10:17:53.260Z,0.73
2023-03-15T10:20:37.936Z,0.60
2023-03-15T10:23:25.044Z,0.50
2023-03-15T10:26:09.684Z,0.60
2023-03-15T10:28:53.027Z,0.60
2023-03-15T10:31:44.673Z,0.75
2023-03-15T10:34:27.833Z,0.77
2023-03-15T10:37:10.867Z,1.00
2023-03-15T10:39:57.584Z,0.90
2023-03-15T10:42:40.702Z,0.73
2023-03-15T10:45:24.285Z,1.23
2023-03-15T10:48:08.915Z,0.90
2023-03-15T10:50:51.824Z,0.70
2023-03-15T10:53:34.761Z,0.93
2023-03-15T10:56:23.180Z,1.10
2023-03-15T10:59:15.652Z,0.40
2023-03-15T11:02:15.945Z,0.50
2023-03-15T11:05:03.929Z,0.60
2023-03-15T11:07:56.674Z,0.75
2023-03-15T11:10:39.387Z,0.80
2023-03-15T11:13:24.316Z,0.70
2023-03-15T11:16:09.728Z,0.68
2023-03-15T11:18:56.800Z,0.70
2023-03-15T11:21:40.303Z,0.75
2023-03-15T11:24:26.924Z,0.90
2023-03-15T11:27:12.496Z,0.70
2023-03-15T11:29:58.580Z,1.00
2023-03-15T11:32:41.951Z,0.60
2023-03-15T11:35:27.254Z,0.63
2023-03-15T11:38:15.442Z,0.65
2023-03-15T11:40:59.787Z,0.63
2023-03-15T11:43:48.786Z,0.73
2023-03-15T11:46:33.935Z,0.68
2023-03-15T11:49:18.802Z,0.47
2023-03-15T11:52:01.602Z,0.50
2023-03-15T11:54:44.836Z,0.57
2023-03-15T11:57:41.036Z,0.60
2023-03-15T12:00:41.692Z,0.93
2023-03-15T12:03:29.624Z,0.60
2023-03-15T12:06:30.346Z,0.63
2023-03-15T12:09:31.707Z,0.70
2023-03-15T12:12:29.165Z,0.60
2023-03-15T12:15:30.548Z,0.68
2023-03-15T12:18:20.982Z,0.60
2023-03-15T12:21:13.574Z,0.60
2023-03-15T12:24:01.503Z,0.50
2023-03-15T12:26:45.674Z,0.68
2023-03-15T12:29:29.474Z,0.70
2023-03-15T12:32:13.568Z,0.60
2023-03-15T12:34:57.472Z,0.70
2023-03-15T12:37:44.391Z,0.80
2023-03-15T12:40:41.061Z,0.75
2023-03-15T12:43:36.957Z,0.88
2023-03-15T12:46:38.194Z,1.00
2023-03-15T12:49:30.172Z,0.90
2023-03-15T12:52:28.428Z,0.90
2023-03-15T12:55:16.004Z,0.80
2023-03-15T12:58:00.110Z,0.80
2023-03-15T13:00:43.267Z,0.65
2023-03-15T13:03:27.459Z,0.70
2023-03-15T13:06:14.447Z,0.80
2023-03-15T13:09:01.815Z,0.70
2023-03-15T13:11:50.607Z,0.70
2023-03-15T13:14:37.469Z,0.80
2023-03-15T13:17:26.275Z,0.60
2023-03-15T13:20:18.979Z,0.85
2023-03-15T13:23:06.211Z,0.70
2023-03-15T13:25:53.198Z,1.08
2023-03-15T13:28:39.744Z,1.00
2023-03-15T13:31:23.859Z,1.00
2023-03-15T13:34:12.244Z,0.75
2023-03-15T13:36:56.005Z,0.93
2023-03-15T13:39:38.666Z,0.82
2023-03-15T13:42:23.814Z,0.77
2023-03-15T13:45:15.547Z,0.82
2023-03-15T13:47:58.274Z,0.70
2023-03-15T13:50:41.497Z,0.90
2023-03-15T13:53:39.440Z,0.80
2023-03-15T13:56:32.677Z,0.82
2023-03-15T13:59:20.380Z,1.10
2023-03-15T14:02:05.264Z,0.95
2023-03-15T14:04:51.954Z,0.82
2023-03-15T14:07:36.420Z,0.80
2023-03-15T14:10:28.831Z,1.00
2023-03-15T14:13:22.047Z,0.70
2023-03-15T14:16:05.835Z,0.98
2023-03-15T14:18:51.385Z,0.90
2023-03-15T14:21:34.098Z,1.05
2023-03-15T14:24:18.116Z,0.75
2023-03-15T14:27:01.572Z,0.93
2023-03-15T14:29:47.628Z,0.88
2023-03-15T14:32:31.430Z,0.73
2023-03-15T14:35:21.787Z,1.00
2023-03-15T14:38:07.806Z,0.70
2023-03-15T14:40:51.675Z,0.88
2023-03-15T14:43:34.340Z,0.90
2023-03-15T14:46:17.083Z,0.82
2023-03-15T14:48:59.818Z,0.93
2023-03-15T14:51:44.178Z,0.88
2023-03-15T14:54:27.124Z,0.68
2023-03-15T14:57:10.073Z,0.80
2023-03-15T14:59:52.809Z,0.90
2023-03-15T15:02:35.643Z,1.00
2023-03-15T15:05:20.831Z,1.00
2023-03-15T15:08:06.645Z,0.77
2023-03-15T15:10:49.862Z,0.90
2023-03-15T15:13:32.750Z,0.80
2023-03-15T15:16:15.497Z,0.80
2023-03-15T15:18:58.176Z,1.10
2023-03-15T15:21:40.901Z,0.98
2023-03-15T15:24:26.530Z,1.10
2023-03-15T15:27:10.478Z,0.98
2023-03-15T15:29:53.423Z,1.05
2023-03-15T15:32:36.148Z,1.30
2023-03-15T15:35:19.949Z,1.13
2023-03-15T15:38:02.898Z,0.93
2023-03-15T15:40:46.928Z,1.08
2023-03-15T15:43:32.309Z,0.90
2023-03-15T15:46:16.213Z,1.08
2023-03-15T15:48:58.947Z,0.90
2023-03-15T15:51:45.524Z,0.98
2023-03-15T15:54:30.640Z,1.02
2023-03-15T15:57:15.203Z,1.02
2023-03-15T15:59:58.035Z,0.90
2023-03-15T16:02:40.734Z,1.20
2023-03-15T16:05:24.665Z,0.77
2023-03-15T16:08:08.354Z,1.05
2023-03-15T16:10:51.326Z,1.00
2023-03-15T16:13:35.390Z,1.00
2023-03-15T16:16:18.997Z,1.00
2023-03-15T16:19:01.692Z,0.70
2023-03-15T16:21:45.158Z,0.82
2023-03-15T16:24:28.942Z,0.70
2023-03-15T16:27:14.105Z,1.00
2023-03-15T16:29:58.093Z,0.82
2023-03-15T16:32:44.543Z,0.88
2023-03-15T16:35:30.863Z,0.80
2023-03-15T16:38:16.930Z,1.17
2023-03-15T16:41:01.116Z,1.00
2023-03-15T16:43:44.029Z,0.98
2023-03-15T16:46:28.073Z,1.30
2023-03-15T16:49:10.900Z,0.90
2023-03-15T16:51:54.142Z,1.23
2023-03-15T16:54:41.426Z,1.00
2023-03-15T16:57:24.804Z,1.05
2023-03-15T17:00:11.996Z,0.73
2023-03-15T17:02:59.754Z,1.10
2023-03-15T17:05:42.569Z,0.77
2023-03-15T17:08:25.587Z,1.00
2023-03-15T17:11:09.813Z,1.08
2023-03-15T17:13:52.416Z,0.93
2023-03-15T17:16:35.111Z,1.05
2023-03-15T17:19:19.065Z,0.90
2023-03-15T17:22:02.159Z,0.80
2023-03-15T17:24:44.955Z,1.10
2023-03-15T17:27:31.390Z,0.80
2023-03-15T17:30:18.205Z,1.10
2023-03-15T17:33:00.961Z,0.88
2023-03-15T17:35:47.196Z,0.90
2023-03-15T17:38:32.841Z,1.10
2023-03-15T17:41:19.235Z,1.00
2023-03-15T17:44:01.889Z,1.10
2023-03-15T17:46:44.628Z,1.35
2023-03-15T17:49:27.369Z,1.08
2023-03-15T17:52:14.174Z,1.20
2023-03-15T17:54:56.886Z,0.80
2023-03-15T17:57:42.949Z,0.88
2023-03-15T18:00:32.507Z,0.90
2023-03-15T18:03:15.922Z,1.10
2023-03-15T18:06:01.346Z,0.95
2023-03-15T18:08:45.959Z,1.10
2023-03-15T18:11:31.838Z,1.05
2023-03-15T18:14:15.463Z,1.20
2023-03-15T18:16:59.363Z,1.40
2023-03-15T18:19:42.058Z,0.93
2023-03-15T18:22:24.719Z,0.82
2023-03-15T18:25:09.626Z,1.05
2023-03-15T18:27:52.722Z,1.10
2023-03-15T18:30:35.600Z,1.10
2023-03-15T18:33:18.936Z,1.17
2023-03-15T18:36:01.625Z,1.10
2023-03-15T18:38:44.351Z,1.27
2023-03-15T18:41:28.379Z,1.25
2023-03-15T18:44:11.052Z,1.10
2023-03-15T18:46:53.863Z,1.27
2023-03-15T18:49:36.664Z,1.30
2023-03-15T18:52:19.361Z,1.60
2023-03-15T18:55:02.133Z,1.40
2023-03-15T18:57:46.525Z,1.63
2023-03-15T19:00:31.469Z,1.52
2023-03-15T19:03:14.200Z,1.48
2023-03-15T19:05:56.858Z,1.75
2023-03-15T19:08:39.543Z,1.30
2023-03-15T19:11:23.880Z,1.08
2023-03-15T19:14:08.027Z,1.17
2023-03-15T19:16:51.163Z,1.50
2023-03-15T19:19:33.870Z,1.15
2023-03-15T19:22:16.499Z,1.25
2023-03-15T19:24:59.135Z,1.25
2023-03-15T19:27:42.052Z,1.20
2023-03-15T19:30:27.438Z,1.63
2023-03-15T19:33:10.197Z,1.17
2023-03-15T19:35:53.534Z,1.27
2023-03-15T19:38:36.209Z,1.40
2023-03-15T19:41:19.201Z,1.65
2023-03-15T19:44:02.322Z,1.52
2023-03-15T19:46:46.493Z,1.20
2023-03-15T19:49:29.446Z,1.80
2023-03-15T19:52:14.430Z,1.60
2023-03-15T19:54:57.171Z,1.30
2023-03-15T19:57:39.902Z,1.35
2023-03-15T20:00:23.390Z,1.77
2023-03-15T20:03:07.702Z,1.38
2023-03-15T20:05:50.338Z,1.67
2023-03-15T20:08:34.202Z,1.63
2023-03-15T20:11:21.156Z,1.55
2023-03-15T20:14:04.257Z,1.58
2023-03-15T20:16:46.885Z,1.63
2023-03-15T20:19:31.759Z,1.35
2023-03-15T20:22:15.179Z,1.58
2023-03-15T20:24:58.016Z,1.15
2023-03-15T20:27:40.708Z,1.40
2023-03-15T20:30:23.954Z,1.55
2023-03-15T20:33:07.390Z,1.30
2023-03-15T20:35:53.239Z,1.60
2023-03-15T20:38:37.310Z,1.77
2023-03-15T20:41:20.309Z,1.30
2023-03-15T20:44:03.289Z,1.63
2023-03-15T20:46:45.956Z,1.55
2023-03-15T20:49:29.429Z,1.63
2023-03-15T20:52:13.516Z,1.65
2023-03-15T20:54:56.146Z,1.85
2023-03-15T20:57:41.246Z,1.80
2023-03-15T21:00:24.647Z,1.55
2023-03-15T21:03:07.665Z,1.60
2023-03-15T21:05:50.355Z,1.58
2023-03-15T21:08:35.231Z,1.67
2023-03-15T21:11:17.934Z,1.70
2023-03-15T21:14:00.898Z,1.63
2023-03-15T21:16:43.625Z,1.80
2023-03-15T21:19:26.320Z,1.58
2023-03-15T21:22:08.919Z,1.70
2023-03-15T21:24:55.908Z,1.45
2023-03-15T21:27:39.017Z,1.75
2023-03-15T21:30:22.777Z,1.70
2023-03-15T21:33:05.728Z,1.65
2023-03-15T21:35:48.414Z,1.35
2023-03-15T21:38:32.289Z,2.53
2023-03-15T21:41:16.300Z,1.70
2023-03-15T21:43:58.961Z,1.50
2023-03-15T21:46:42.145Z,1.77
2023-03-15T21:49:24.971Z,2.45
2023-03-15T21:52:07.640Z,1.52
2023-03-15T21:54:50.309Z,1.80
2023-03-15T21:57:34.672Z,1.60
2023-03-15T22:00:18.454Z,1.50
2023-03-15T22:03:01.391Z,1.73
2023-03-15T22:05:46.278Z,1.85
2023-03-15T22:08:30.708Z,1.73
2023-03-15T22:11:13.696Z,1.65
2023-03-15T22:13:57.743Z,1.40
2023-03-15T22:16:40.600Z,1.60
2023-03-15T22:19:23.485Z,1.70
2023-03-15T22:22:06.204Z,1.60
2023-03-15T22:24:49.444Z,1.70
2023-03-15T22:27:32.155Z,1.20
2023-03-15T22:30:17.673Z,1.63
2023-03-15T22:33:00.753Z,1.73
2023-03-15T22:35:43.528Z,1.77
2023-03-15T22:38:27.011Z,1.80
2023-03-15T22:41:10.742Z,1.40
2023-03-15T22:43:53.644Z,1.80
2023-03-15T22:46:37.710Z,1.50
2023-03-15T22:49:20.419Z,1.25
2023-03-15T22:52:03.101Z,1.52
2023-03-15T22:54:45.871Z,1.52
2023-03-15T22:57:28.562Z,1.38
2023-03-15T23:00:13.921Z,1.48
2023-03-15T23:02:58.179Z,1.70
2023-03-15T23:05:41.406Z,1.70
2023-03-15T23:08:24.247Z,1.80
2023-03-15T23:11:06.901Z,1.60
2023-03-15T23:13:49.562Z,1.60
2023-03-15T23:16:32.900Z,1.40
2023-03-15T23:19:16.987Z,1.50
2023-03-15T23:21:59.706Z,1.73
2023-03-15T23:24:42.416Z,1.80
2023-03-15T23:27:26.110Z,1.27
2023-03-15T23:30:10.212Z,1.45
2023-03-15T23:32:57.616Z,1.70
2023-03-15T23:35:41.913Z,1.50
2023-03-15T23:38:24.499Z,1.98
2023-03-15T23:41:07.140Z,1.50
2023-03-15T23:43:49.798Z,1.75
2023-03-15T23:46:35.994Z,1.80
2023-03-15T23:49:18.662Z,1.58
2023-03-15T23:52:05.241Z,2.05
2023-03-15T23:54:48.058Z,1.60
2023-03-15T23:57:30.926Z,1.65
